Главная страница
METAR-TAF:

METAR-TAF

Аэропорты :

Решт, Иран

широта: 37-12N, долгота: 049-38E, высота над уровнем моря: -7 м

Текущие метеонаблюдения

Эта сводка был подготовлена 34 минут назад, в 07:30 UTC
Ветер 4 Узел от северно-северо-западный
Температура 27°C
Влажность 51%
Давление 1017 hPa
Видимость 10 км и более
небольшая облачность на высоте 2500 фута

METAR: OIGG 070730Z 34004KT 9999 FEW025 27/16 Q1017

Время: 12:34 (08:04 UTC)


TAF: отсутствует

Метеонаблюдения и прогнозы для более 4000 аэропортов (сводки METAR и TAF).

Имеющиеся станции представлены на карте желтыми и красными точками.

Чтобы увидеть название станции, наведите на нее мышь.

Затем щелкните, чтобы увидеть метеонаблюдения и метеопрогнозы.

Управление картой: чтобы увеличить масштаб, щелкните зеленые кнопки с черным крестиком; чтобы уменьшить масштаб, щелкните зеленую кнопку с тире; для просмотра соседних карт щелкайте зеленые стрелки.


METAR-TAF: